Terminal Aerodrome Forecast
Issued by NWS

Home | Current Version | Previous Version | Text Only | Print | Product List | Glossary On
Versions: 1 2 3 4 5 6 7 8 9 10 11 12
000
FTUS46 KMTR 221751
TAFSNS
TAF
KSNS 221751Z 2218/2318 26012KT P6SM SCT025 BKN050
     FM222100 27016G24KT P6SM FEW025 SCT050
     FM222300 27022G30KT P6SM FEW025 SCT050
     FM230300 27011G18KT P6SM FEW050
     FM230700 VRB04KT P6SM SKC
     FM231600 14007KT P6SM SKC=

USA.gov is the U.S. government's official web portal to all federal, state and local government web resources and services.